2019 Walk Like MADD - 5K Walk/Run

What is the difference between Gun Time and Net Time?



Overall Results: 5K

Sort by  Gun Time Net Time
Place Bib First Last Sex Age Div City State Gun
Time
Net
Time
Pace Sex
Place
Sex
Total
Div
Place
Div
Total
1 102 Madison Zemper-Prill F 11 F0113 Eugene OR 21:14.8 21:14.8 6:51 1 73 1 5
2 53 Andrew Kirchharr M 33 M3034 Springfield OR 21:35.7 21:34.1 6:57 1 33 1 4
3 74 Dominic Passarelli M 35 M3539 Eugene OR 21:37.1 21:35.7 6:58 2 33 1 3
4 93 Sebastian Tapia M 45 M4549 Eugene OR 22:30.7 22:30.2 7:15 3 33 1 2
5 55 Tracy Lampman F 53 F5054 Eugene OR 22:43.3 22:43.3 7:19 2 73 1 4
6 66 Joann Miller F 49 F4549 Eugene OR 23:10.4 23:10.2 7:28 3 73 1 5
7 13 Matthew Bromley M 35 M3539 Eugene OR 23:37.1 23:27.3 7:33 4 33 2 3
8 1 Ron Ackerman M 72 M7074 Eugene OR 23:34.2 23:32.8 7:35 5 33 1 2
9 84 Wendy Roberts F 57 F5559 Albany OR 26:39.2 26:32.7 8:33 4 73 1 5
10 20 Zade Christensen M 9 M0113 Eugene OR 26:52.8 26:52.4 8:39 6 33 1 5
11 19 Tara Christensen F 37 F3539 Eugene OR 26:53.3 26:52.5 8:40 5 73 1 5
12 108 Lyle Clingman M 41 M4044 Springfield OR 27:03.7 27:00.6 8:42 7 33 1 2
13 107 Juli Schutfort F 53 F5054 Corvallis OR 27:11.2 27:08.2 8:45 6 73 2 4
14 92 Deb Stoll F 56 F5559 Eugene OR 29:57.7 29:54.6 9:38 7 73 2 5
15 71 Shane Orsborn M 30 M3034 Springfield OR 31:10.7 30:41.4 9:53 8 33 2 4
16 106 Elsa Schutfort F 15 F1418 Corvallis OR 30:54.3 30:51.7 9:56 8 73 1 2
17 72 Shelby Orsborn F 35 F3539 Springfield OR 31:59.4 31:32.9 10:10 9 73 2 5
18 33 Tammy Duvall F 34 F3034 Eugene OR 32:32.2 32:14.4 10:23 10 73 1 4
19 38 Connie Gardner F 28 F2529 Eugene OR 32:16.9 32:15.0 10:23 11 73 1 3
20 63 Holly McGrath F 31 F3034 Eugene OR 32:32.1 32:15.6 10:23 12 73 2 4
21 10 Kris Birr F 31 F3034 Eugene OR 32:50.2 32:37.5 10:31 13 73 3 4
22 3 Kristen Beaudet F 21 F1924 Springfield OR 32:51.0 32:39.8 10:31 14 73 1 2
23 99 Thomas Underwood M 62 M6064 Eugene OR 33:25.0 33:16.6 10:43 9 33 1 2
24 39 Dylan Gilmore-Ledoux M 20 M1924 Eugene OR 33:33.1 33:29.5 10:47 10 33 1 1
25 35 Emma Fox F 12 F0113 Dallas OR 33:46.5 33:34.0 10:49 15 73 2 5
26 36 Patrick Fox M 9 M0113 Dallas OR 33:47.9 33:34.6 10:49 11 33 2 5
27 47 Akai Iwai M 5 M0113 Salem OR 37:28.5 36:47.0 11:51 12 33 3 5
28 64 Deleesa Meashintubby F 59 F5559 Eugene OR 36:47.8 36:47.8 11:51 16 73 3 5
29 48 Cathylee Iwai F 39 F3539 Salem OR 37:28.3 36:47.9 11:51 17 73 3 5
30 32 Noah Dunn M 12 M0113 Salem OR 37:31.2 37:15.6 12:00 13 33 4 5
31 21 Susan Combs F 65 F6569 Salem OR 37:57.6 37:16.8 12:00 18 73 1 3
32 65 Abbey Mendenhall F 40 F4044 Dallas OR 39:36.6 39:21.8 12:41 19 73 1 3
33 82 Lyndee Prill F 42 F4044 Eugene OR 44:50.4 44:49.0 14:26 20 73 2 3
34 101 Jaina Zemper-Prill F 9 F0113 Eugene OR 44:49.6 44:49.3 14:26 21 73 3 5
35 58 Isabel Lopez F 17 F1418 Salem OR 51:29.1 51:14.1 16:30 22 73 2 2
36 59 Laura Lopez F 47 F4549 Salem OR 51:32.2 51:16.7 16:31 23 73 2 5
37 54 Ky Kirkhart M 34 M3034 Oakridge OR 51:28.6 51:17.8 16:31 14 33 3 4
38 67 Reina Navarro F 38 F3539 Veneta OR 51:33.1 51:24.4 16:33 24 73 4 5
39 62 Elle McCall F 29 F2529 Eugene OR 53:11.3 52:52.3 17:02 25 73 2 3
40 14 Rayleen Burnett F 47 F4549 Eugene OR 53:11.2 52:52.5 17:02 26 73 3 5
41 26 Apollo Dennis M Springfield OR 53:17.7 52:56.7 17:03 15 33
42 80 Patty Perlow F 56 F5559 Eugene OR 53:26.6 53:05.6 17:06 27 73 4 5
43 81 Angela Pershern F 63 F6064 Eugene OR 53:28.6 53:07.7 17:07 28 73 1 3
44 31 Connie Duke F 53 F5054 Eugene OR 53:27.1 53:08.0 17:07 29 73 3 4
45 89 Lori Silano F Eugene OR 53:25.5 53:08.1 17:07 30 73
46 50 Sara Jensen F 31 F3034 Eugene OR 53:28.1 53:10.4 17:07 31 73 4 4
47 45 Taylor Hooker F 11 F0113 Junction City OR 53:40.1 53:27.2 17:13 32 73 4 5
48 105 Jane Dods F 83 F8099 Springfield OR 53:32.7 53:29.6 17:14 33 73 1 2
49 27 Dawn Dewolf F 66 F6569 Eugene OR 53:55.7 53:34.1 17:15 34 73 2 3
50 44 Jim Hooker M 71 M7074 Junction City OR 54:12.0 54:01.3 17:24 16 33 2 2
51 76 Joseph Passarelli M 8 M0113 Springfield OR 54:46.4 54:08.1 17:26 17 33 5 5
52 43 Jayden Hooker F 7 F0113 Junction City OR 54:48.0 54:34.1 17:34 35 73 5 5
53 46 Tim Hooker M 39 M3539 Junction City OR 54:52.8 54:39.0 17:36 18 33 3 3
54 98 Jason Trent M 44 M4044 Junction City OR 55:15.9 55:08.3 17:45 19 33 2 2
55 56 Kacey Ledoux-Trent F 41 F4044 Junction City OR 55:16.3 55:10.4 17:46 36 73 3 3
56 17 Tony Chen M 49 M4549 Happy Valley OR 55:44.1 55:16.0 17:48 20 33 2 2
57 28 Carolyn Dimick-Kronberger F Eugene OR 55:46.3 55:16.1 17:48 37 73
58 4 Alicia Beebe-Allen F Eugene OR 55:48.5 55:18.3 17:49 38 73
59 16 Ethan Chen M 15 M1418 Happy Valley OR 55:49.2 55:22.3 17:50 21 33 1 1
60 42 Andrea Hooker F 39 F3539 Junction City OR 55:37.3 55:22.6 17:50 39 73 5 5
61 18 Melissa Chou F 48 F4549 Happy Valley OR 55:50.8 55:25.3 17:51 40 73 4 5
62 91 Danielle Stahl F 20 F1924 Junction City OR 55:37.8 55:26.6 17:51 41 73 2 2
63 51 Tom Jordan M Eugene OR 55:29.0 55:29.0 17:52 22 33
64 24 Natalie Cunningham F Eugene OR 56:10.5 55:46.3 17:58 42 73
65 23 Jolene Cunningham F Eugene OR 56:12.2 55:47.6 17:58 43 73
66 29 Annie Doggett F Eugene OR 56:11.7 55:48.8 17:58 44 73
67 69 Karuna Neustadt F 66 F6569 Eugene OR 55:55.6 55:55.6 18:01 45 73 3 3
68 12 Cindy Boyles F Veneta OR 57:29.9 56:57.4 18:20 46 73
69 90 Becky Sisley F 80 F8099 Eugene OR 57:32.8 57:22.6 18:29 47 73 2 2
70 61 Jan Marquardt F Eugene OR 57:33.4 57:24.7 18:29 48 73
71 11 Ron Bodeen M Eugene OR 57:35.2 57:30.2 18:31 23 33
72 83 Kathy Re F Eugene OR 59:31.9 59:10.1 19:03 49 73
73 97 Sandie Thomas F 71 F7074 Junction City OR 59:29.2 59:14.3 19:04 50 73 1 1
74 96 Billy Thomas M 55 M5559 Junction City OR 1:01:11.6 1:00:57.9 19:38 24 33 1 1
75 57 Lori Lee F Eugene OR 1:01:56.8 1:01:49.3 19:54 51 73
76 94 Bill Temple M 63 M6064 Eugene OR 1:03:11.1 1:02:40.2 20:11 25 33 2 2
77 95 Kim Temple F 63 F6064 Eugene OR 1:03:11.6 1:02:41.2 20:11 52 73 2 3
78 41 Joy Hemming F Albany OR 1:04:00.0 1:03:16.8 20:23 53 73
79 52 Jeannette Keen F 60 F6064 Roseburg OR 1:04:13.2 1:03:49.0 20:33 54 73 3 3
80 34 Cindy Ferner F 58 F5559 Roseburg OR 1:04:14.8 1:03:51.1 20:34 55 73 5 5
81 78 Andrew Percell M 34 M3034 Junction City OR 1:04:12.5 1:03:59.0 20:36 26 33 4 4
82 37 Esteban Frias M Eugene OR 1:04:13.1 1:04:01.1 20:37 27 33
83 15 Susan Cannon F 50 F5054 Junction City OR 1:04:14.3 1:04:03.0 20:37 56 73 4 4
84 68 Carlarae Nelson F 49 F4549 Junction City OR 1:04:15.6 1:04:04.9 20:38 57 73 5 5

Men Results: 5K

Sort by  Gun Time Net Time
Place Bib First Last Sex Age Div City State Gun
Time
Net
Time
Pace Sex
Place
Sex
Total
Div
Place
Div
Total
1 53 Andrew Kirchharr M 33 M3034 Springfield OR 21:35.7 21:34.1 6:57 1 33 1 4
2 74 Dominic Passarelli M 35 M3539 Eugene OR 21:37.1 21:35.7 6:58 2 33 1 3
3 93 Sebastian Tapia M 45 M4549 Eugene OR 22:30.7 22:30.2 7:15 3 33 1 2
4 13 Matthew Bromley M 35 M3539 Eugene OR 23:37.1 23:27.3 7:33 4 33 2 3
5 1 Ron Ackerman M 72 M7074 Eugene OR 23:34.2 23:32.8 7:35 5 33 1 2
6 20 Zade Christensen M 9 M0113 Eugene OR 26:52.8 26:52.4 8:39 6 33 1 5
7 108 Lyle Clingman M 41 M4044 Springfield OR 27:03.7 27:00.6 8:42 7 33 1 2
8 71 Shane Orsborn M 30 M3034 Springfield OR 31:10.7 30:41.4 9:53 8 33 2 4
9 99 Thomas Underwood M 62 M6064 Eugene OR 33:25.0 33:16.6 10:43 9 33 1 2
10 39 Dylan Gilmore-Ledoux M 20 M1924 Eugene OR 33:33.1 33:29.5 10:47 10 33 1 1
11 36 Patrick Fox M 9 M0113 Dallas OR 33:47.9 33:34.6 10:49 11 33 2 5
12 47 Akai Iwai M 5 M0113 Salem OR 37:28.5 36:47.0 11:51 12 33 3 5
13 32 Noah Dunn M 12 M0113 Salem OR 37:31.2 37:15.6 12:00 13 33 4 5
14 54 Ky Kirkhart M 34 M3034 Oakridge OR 51:28.6 51:17.8 16:31 14 33 3 4
15 26 Apollo Dennis M Springfield OR 53:17.7 52:56.7 17:03 15 33
16 44 Jim Hooker M 71 M7074 Junction City OR 54:12.0 54:01.3 17:24 16 33 2 2
17 76 Joseph Passarelli M 8 M0113 Springfield OR 54:46.4 54:08.1 17:26 17 33 5 5
18 46 Tim Hooker M 39 M3539 Junction City OR 54:52.8 54:39.0 17:36 18 33 3 3
19 98 Jason Trent M 44 M4044 Junction City OR 55:15.9 55:08.3 17:45 19 33 2 2
20 17 Tony Chen M 49 M4549 Happy Valley OR 55:44.1 55:16.0 17:48 20 33 2 2
21 16 Ethan Chen M 15 M1418 Happy Valley OR 55:49.2 55:22.3 17:50 21 33 1 1
22 51 Tom Jordan M Eugene OR 55:29.0 55:29.0 17:52 22 33
23 11 Ron Bodeen M Eugene OR 57:35.2 57:30.2 18:31 23 33
24 96 Billy Thomas M 55 M5559 Junction City OR 1:01:11.6 1:00:57.9 19:38 24 33 1 1
25 94 Bill Temple M 63 M6064 Eugene OR 1:03:11.1 1:02:40.2 20:11 25 33 2 2
26 78 Andrew Percell M 34 M3034 Junction City OR 1:04:12.5 1:03:59.0 20:36 26 33 4 4
27 37 Esteban Frias M Eugene OR 1:04:13.1 1:04:01.1 20:37 27 33

Women Results: 5K

Sort by  Gun Time Net Time
Place Bib First Last Sex Age Div City State Gun
Time
Net
Time
Pace Sex
Place
Sex
Total
Div
Place
Div
Total
1 102 Madison Zemper-Prill F 11 F0113 Eugene OR 21:14.8 21:14.8 6:51 1 73 1 5
2 55 Tracy Lampman F 53 F5054 Eugene OR 22:43.3 22:43.3 7:19 2 73 1 4
3 66 Joann Miller F 49 F4549 Eugene OR 23:10.4 23:10.2 7:28 3 73 1 5
4 84 Wendy Roberts F 57 F5559 Albany OR 26:39.2 26:32.7 8:33 4 73 1 5
5 19 Tara Christensen F 37 F3539 Eugene OR 26:53.3 26:52.5 8:40 5 73 1 5
6 107 Juli Schutfort F 53 F5054 Corvallis OR 27:11.2 27:08.2 8:45 6 73 2 4
7 92 Deb Stoll F 56 F5559 Eugene OR 29:57.7 29:54.6 9:38 7 73 2 5
8 106 Elsa Schutfort F 15 F1418 Corvallis OR 30:54.3 30:51.7 9:56 8 73 1 2
9 72 Shelby Orsborn F 35 F3539 Springfield OR 31:59.4 31:32.9 10:10 9 73 2 5
10 33 Tammy Duvall F 34 F3034 Eugene OR 32:32.2 32:14.4 10:23 10 73 1 4
11 38 Connie Gardner F 28 F2529 Eugene OR 32:16.9 32:15.0 10:23 11 73 1 3
12 63 Holly McGrath F 31 F3034 Eugene OR 32:32.1 32:15.6 10:23 12 73 2 4
13 10 Kris Birr F 31 F3034 Eugene OR 32:50.2 32:37.5 10:31 13 73 3 4
14 3 Kristen Beaudet F 21 F1924 Springfield OR 32:51.0 32:39.8 10:31 14 73 1 2
15 35 Emma Fox F 12 F0113 Dallas OR 33:46.5 33:34.0 10:49 15 73 2 5
16 64 Deleesa Meashintubby F 59 F5559 Eugene OR 36:47.8 36:47.8 11:51 16 73 3 5
17 48 Cathylee Iwai F 39 F3539 Salem OR 37:28.3 36:47.9 11:51 17 73 3 5
18 21 Susan Combs F 65 F6569 Salem OR 37:57.6 37:16.8 12:00 18 73 1 3
19 65 Abbey Mendenhall F 40 F4044 Dallas OR 39:36.6 39:21.8 12:41 19 73 1 3
20 82 Lyndee Prill F 42 F4044 Eugene OR 44:50.4 44:49.0 14:26 20 73 2 3
21 101 Jaina Zemper-Prill F 9 F0113 Eugene OR 44:49.6 44:49.3 14:26 21 73 3 5
22 58 Isabel Lopez F 17 F1418 Salem OR 51:29.1 51:14.1 16:30 22 73 2 2
23 59 Laura Lopez F 47 F4549 Salem OR 51:32.2 51:16.7 16:31 23 73 2 5
24 67 Reina Navarro F 38 F3539 Veneta OR 51:33.1 51:24.4 16:33 24 73 4 5
25 62 Elle McCall F 29 F2529 Eugene OR 53:11.3 52:52.3 17:02 25 73 2 3
26 14 Rayleen Burnett F 47 F4549 Eugene OR 53:11.2 52:52.5 17:02 26 73 3 5
27 80 Patty Perlow F 56 F5559 Eugene OR 53:26.6 53:05.6 17:06 27 73 4 5
28 81 Angela Pershern F 63 F6064 Eugene OR 53:28.6 53:07.7 17:07 28 73 1 3
29 31 Connie Duke F 53 F5054 Eugene OR 53:27.1 53:08.0 17:07 29 73 3 4
30 89 Lori Silano F Eugene OR 53:25.5 53:08.1 17:07 30 73
31 50 Sara Jensen F 31 F3034 Eugene OR 53:28.1 53:10.4 17:07 31 73 4 4
32 45 Taylor Hooker F 11 F0113 Junction City OR 53:40.1 53:27.2 17:13 32 73 4 5
33 105 Jane Dods F 83 F8099 Springfield OR 53:32.7 53:29.6 17:14 33 73 1 2
34 27 Dawn Dewolf F 66 F6569 Eugene OR 53:55.7 53:34.1 17:15 34 73 2 3
35 43 Jayden Hooker F 7 F0113 Junction City OR 54:48.0 54:34.1 17:34 35 73 5 5
36 56 Kacey Ledoux-Trent F 41 F4044 Junction City OR 55:16.3 55:10.4 17:46 36 73 3 3
37 28 Carolyn Dimick-Kronberger F Eugene OR 55:46.3 55:16.1 17:48 37 73
38 4 Alicia Beebe-Allen F Eugene OR 55:48.5 55:18.3 17:49 38 73
39 42 Andrea Hooker F 39 F3539 Junction City OR 55:37.3 55:22.6 17:50 39 73 5 5
40 18 Melissa Chou F 48 F4549 Happy Valley OR 55:50.8 55:25.3 17:51 40 73 4 5
41 91 Danielle Stahl F 20 F1924 Junction City OR 55:37.8 55:26.6 17:51 41 73 2 2
42 24 Natalie Cunningham F Eugene OR 56:10.5 55:46.3 17:58 42 73
43 23 Jolene Cunningham F Eugene OR 56:12.2 55:47.6 17:58 43 73
44 29 Annie Doggett F Eugene OR 56:11.7 55:48.8 17:58 44 73
45 69 Karuna Neustadt F 66 F6569 Eugene OR 55:55.6 55:55.6 18:01 45 73 3 3
46 12 Cindy Boyles F Veneta OR 57:29.9 56:57.4 18:20 46 73
47 90 Becky Sisley F 80 F8099 Eugene OR 57:32.8 57:22.6 18:29 47 73 2 2
48 61 Jan Marquardt F Eugene OR 57:33.4 57:24.7 18:29 48 73
49 83 Kathy Re F Eugene OR 59:31.9 59:10.1 19:03 49 73
50 97 Sandie Thomas F 71 F7074 Junction City OR 59:29.2 59:14.3 19:04 50 73 1 1
51 57 Lori Lee F Eugene OR 1:01:56.8 1:01:49.3 19:54 51 73
52 95 Kim Temple F 63 F6064 Eugene OR 1:03:11.6 1:02:41.2 20:11 52 73 2 3
53 41 Joy Hemming F Albany OR 1:04:00.0 1:03:16.8 20:23 53 73
54 52 Jeannette Keen F 60 F6064 Roseburg OR 1:04:13.2 1:03:49.0 20:33 54 73 3 3
55 34 Cindy Ferner F 58 F5559 Roseburg OR 1:04:14.8 1:03:51.1 20:34 55 73 5 5
56 15 Susan Cannon F 50 F5054 Junction City OR 1:04:14.3 1:04:03.0 20:37 56 73 4 4
57 68 Carlarae Nelson F 49 F4549 Junction City OR 1:04:15.6 1:04:04.9 20:38 57 73 5 5

Master's Men Results: 5K

Sort by  Gun Time Net Time
Place Bib First Last Sex Age Div City State Gun
Time
Net
Time
Pace Sex
Place
Sex
Total
Div
Place
Div
Total
1 93 Sebastian Tapia M 45 M4549 Eugene OR 22:30.7 22:30.2 7:15 3 33 1 2
2 1 Ron Ackerman M 72 M7074 Eugene OR 23:34.2 23:32.8 7:35 5 33 1 2
3 108 Lyle Clingman M 41 M4044 Springfield OR 27:03.7 27:00.6 8:42 7 33 1 2
4 99 Thomas Underwood M 62 M6064 Eugene OR 33:25.0 33:16.6 10:43 9 33 1 2
5 44 Jim Hooker M 71 M7074 Junction City OR 54:12.0 54:01.3 17:24 16 33 2 2
6 98 Jason Trent M 44 M4044 Junction City OR 55:15.9 55:08.3 17:45 19 33 2 2
7 17 Tony Chen M 49 M4549 Happy Valley OR 55:44.1 55:16.0 17:48 20 33 2 2
8 96 Billy Thomas M 55 M5559 Junction City OR 1:01:11.6 1:00:57.9 19:38 24 33 1 1
9 94 Bill Temple M 63 M6064 Eugene OR 1:03:11.1 1:02:40.2 20:11 25 33 2 2

Master's Women Results: 5K

Sort by  Gun Time Net Time
Place Bib First Last Sex Age Div City State Gun
Time
Net
Time
Pace Sex
Place
Sex
Total
Div
Place
Div
Total
1 55 Tracy Lampman F 53 F5054 Eugene OR 22:43.3 22:43.3 7:19 2 73 1 4
2 66 Joann Miller F 49 F4549 Eugene OR 23:10.4 23:10.2 7:28 3 73 1 5
3 84 Wendy Roberts F 57 F5559 Albany OR 26:39.2 26:32.7 8:33 4 73 1 5
4 107 Juli Schutfort F 53 F5054 Corvallis OR 27:11.2 27:08.2 8:45 6 73 2 4
5 92 Deb Stoll F 56 F5559 Eugene OR 29:57.7 29:54.6 9:38 7 73 2 5
6 64 Deleesa Meashintubby F 59 F5559 Eugene OR 36:47.8 36:47.8 11:51 16 73 3 5
7 21 Susan Combs F 65 F6569 Salem OR 37:57.6 37:16.8 12:00 18 73 1 3
8 65 Abbey Mendenhall F 40 F4044 Dallas OR 39:36.6 39:21.8 12:41 19 73 1 3
9 82 Lyndee Prill F 42 F4044 Eugene OR 44:50.4 44:49.0 14:26 20 73 2 3
10 59 Laura Lopez F 47 F4549 Salem OR 51:32.2 51:16.7 16:31 23 73 2 5
11 14 Rayleen Burnett F 47 F4549 Eugene OR 53:11.2 52:52.5 17:02 26 73 3 5
12 80 Patty Perlow F 56 F5559 Eugene OR 53:26.6 53:05.6 17:06 27 73 4 5
13 81 Angela Pershern F 63 F6064 Eugene OR 53:28.6 53:07.7 17:07 28 73 1 3
14 31 Connie Duke F 53 F5054 Eugene OR 53:27.1 53:08.0 17:07 29 73 3 4
15 105 Jane Dods F 83 F8099 Springfield OR 53:32.7 53:29.6 17:14 33 73 1 2
16 27 Dawn Dewolf F 66 F6569 Eugene OR 53:55.7 53:34.1 17:15 34 73 2 3
17 56 Kacey Ledoux-Trent F 41 F4044 Junction City OR 55:16.3 55:10.4 17:46 36 73 3 3
18 18 Melissa Chou F 48 F4549 Happy Valley OR 55:50.8 55:25.3 17:51 40 73 4 5
19 69 Karuna Neustadt F 66 F6569 Eugene OR 55:55.6 55:55.6 18:01 45 73 3 3
20 90 Becky Sisley F 80 F8099 Eugene OR 57:32.8 57:22.6 18:29 47 73 2 2
21 97 Sandie Thomas F 71 F7074 Junction City OR 59:29.2 59:14.3 19:04 50 73 1 1
22 95 Kim Temple F 63 F6064 Eugene OR 1:03:11.6 1:02:41.2 20:11 52 73 2 3
23 52 Jeannette Keen F 60 F6064 Roseburg OR 1:04:13.2 1:03:49.0 20:33 54 73 3 3
24 34 Cindy Ferner F 58 F5559 Roseburg OR 1:04:14.8 1:03:51.1 20:34 55 73 5 5
25 15 Susan Cannon F 50 F5054 Junction City OR 1:04:14.3 1:04:03.0 20:37 56 73 4 4
26 68 Carlarae Nelson F 49 F4549 Junction City OR 1:04:15.6 1:04:04.9 20:38 57 73 5 5